createdAt,value
2019-01-25T00:00:23.393Z,6.87
2019-01-25T00:02:51.975Z,6.83
2019-01-25T00:05:20.424Z,7.57
2019-01-25T00:07:48.937Z,10.93
2019-01-25T00:10:17.394Z,8.77
2019-01-25T00:12:45.857Z,7.50
2019-01-25T00:15:15.040Z,7.40
2019-01-25T00:17:43.490Z,6.53
2019-01-25T00:20:13.178Z,8.07
2019-01-25T00:22:41.754Z,6.03
2019-01-25T00:25:10.653Z,10.60
2019-01-25T00:27:39.161Z,9.20
2019-01-25T00:30:13.242Z,7.60
2019-01-25T00:32:41.745Z,4.97
2019-01-25T00:35:10.338Z,8.57
2019-01-25T00:37:38.913Z,5.30
2019-01-25T00:40:13.935Z,8.33
2019-01-25T00:42:42.367Z,7.37
2019-01-25T00:45:12.067Z,11.17
2019-01-25T00:47:40.528Z,14.87
2019-01-25T00:50:14.820Z,16.83
2019-01-25T00:52:43.334Z,19.67
2019-01-25T00:55:12.121Z,17.27
2019-01-25T00:57:40.650Z,18.20
2019-01-25T01:00:23.887Z,15.50
2019-01-25T01:02:52.417Z,16.60
2019-01-25T01:05:21.605Z,12.37
2019-01-25T01:07:51.572Z,17.23
2019-01-25T01:10:20.841Z,8.67
2019-01-25T01:12:49.842Z,8.93
2019-01-25T01:15:18.533Z,8.83
2019-01-25T01:17:47.125Z,7.03
2019-01-25T01:20:20.445Z,7.00
2019-01-25T01:22:49.825Z,9.70
2019-01-25T01:25:18.621Z,12.93
2019-01-25T01:27:47.305Z,11.70
2019-01-25T01:30:21.494Z,11.60
2019-01-25T01:32:50.201Z,9.67
2019-01-25T01:35:18.795Z,8.10
2019-01-25T01:37:47.954Z,8.50
2019-01-25T01:40:21.936Z,7.70
2019-01-25T01:42:48.989Z,6.13
2019-01-25T01:45:18.275Z,8.57
2019-01-25T01:47:46.925Z,9.10
2019-01-25T01:50:17.146Z,6.93
2019-01-25T01:52:46.142Z,9.27
2019-01-25T01:55:14.739Z,10.23
2019-01-25T01:57:43.362Z,6.00
2019-01-25T02:00:17.797Z,7.70
2019-01-25T02:02:46.236Z,8.33
2019-01-25T02:05:20.550Z,8.13
2019-01-25T02:07:49.197Z,10.13
2019-01-25T02:10:29.229Z,11.27
2019-01-25T02:12:54.133Z,8.17
2019-01-25T02:15:23.318Z,8.17
2019-01-25T02:17:51.975Z,8.13
2019-01-25T02:20:25.614Z,9.37
2019-01-25T02:22:54.145Z,10.10
2019-01-25T02:25:22.720Z,9.10
2019-01-25T02:27:51.245Z,8.90
2019-01-25T02:30:22.537Z,8.80
2019-01-25T02:32:51.401Z,6.10
2019-01-25T02:35:19.991Z,7.20
2019-01-25T02:37:48.749Z,8.90
2019-01-25T02:40:19.771Z,8.10
2019-01-25T02:42:48.218Z,7.77
2019-01-25T02:45:16.978Z,6.97
2019-01-25T02:47:45.424Z,10.30
2019-01-25T02:50:18.650Z,9.23
2019-01-25T02:52:47.168Z,11.63
2019-01-25T02:55:16.746Z,11.30
2019-01-25T02:57:45.431Z,7.93
2019-01-25T03:00:16.955Z,7.43
2019-01-25T03:02:45.846Z,6.33
2019-01-25T03:05:16.425Z,6.37
2019-01-25T03:07:45.025Z,9.30
2019-01-25T03:10:18.838Z,13.07
2019-01-25T03:12:47.483Z,13.27
2019-01-25T03:15:24.492Z,15.97
2019-01-25T03:17:53.358Z,10.30
2019-01-25T03:20:22.154Z,12.73
2019-01-25T03:22:50.688Z,13.77
2019-01-25T03:25:26.392Z,14.40
2019-01-25T03:27:55.001Z,18.87
2019-01-25T03:30:26.718Z,14.63
2019-01-25T03:32:55.337Z,10.97
2019-01-25T03:35:25.919Z,12.90
2019-01-25T03:37:54.506Z,12.73
2019-01-25T03:40:25.005Z,9.90
2019-01-25T03:42:53.522Z,14.83
2019-01-25T03:45:22.713Z,15.20
2019-01-25T03:47:51.379Z,10.53
2019-01-25T03:50:28.085Z,15.43
2019-01-25T03:52:56.609Z,12.13
2019-01-25T03:55:25.408Z,13.53
2019-01-25T03:57:53.984Z,11.97
2019-01-25T04:00:24.937Z,13.43
2019-01-25T04:02:53.470Z,11.30
2019-01-25T04:05:21.988Z,7.77
2019-01-25T04:07:50.586Z,10.93
2019-01-25T04:10:24.225Z,8.73
2019-01-25T04:12:53.051Z,14.80
2019-01-25T04:15:27.572Z,12.40
2019-01-25T04:17:56.085Z,10.77
2019-01-25T04:20:24.780Z,14.80
2019-01-25T04:22:53.383Z,11.13
2019-01-25T04:25:22.978Z,12.90
2019-01-25T04:27:52.078Z,13.93
2019-01-25T04:30:29.053Z,11.00
2019-01-25T04:32:57.638Z,15.93
2019-01-25T04:35:26.173Z,19.07
2019-01-25T04:37:54.759Z,20.20
2019-01-25T04:40:23.313Z,12.63
2019-01-25T04:42:52.501Z,14.17
2019-01-25T04:45:22.996Z,13.50
2019-01-25T04:47:51.690Z,10.80
2019-01-25T04:50:24.444Z,16.77
2019-01-25T04:52:53.238Z,13.67
2019-01-25T04:55:24.396Z,10.87
2019-01-25T04:57:53.128Z,11.50
2019-01-25T05:00:23.337Z,10.70
2019-01-25T05:02:57.134Z,14.00
2019-01-25T05:05:26.635Z,14.90
2019-01-25T05:08:09.703Z,11.00
2019-01-25T05:10:38.235Z,11.67
2019-01-25T05:13:06.762Z,10.13
2019-01-25T05:15:35.350Z,12.30
2019-01-25T05:18:04.583Z,11.00
2019-01-25T05:20:33.177Z,9.73
2019-01-25T05:23:03.679Z,11.30
2019-01-25T05:25:32.698Z,11.90
2019-01-25T05:28:15.502Z,14.73
2019-01-25T05:30:52.399Z,10.90
2019-01-25T05:33:20.993Z,12.87
2019-01-25T05:35:49.594Z,12.50
2019-01-25T05:38:18.048Z,18.20
2019-01-25T05:40:46.502Z,12.50
2019-01-25T05:43:15.035Z,17.50
2019-01-25T05:45:45.335Z,13.37
2019-01-25T05:48:14.230Z,15.07
2019-01-25T05:50:42.741Z,16.73
2019-01-25T05:53:11.348Z,17.33
2019-01-25T05:55:39.793Z,12.03
2019-01-25T05:58:09.898Z,15.10
2019-01-25T06:00:40.001Z,12.40
2019-01-25T06:03:13.471Z,13.07
2019-01-25T06:05:42.569Z,15.57
2019-01-25T06:08:14.294Z,16.40
2019-01-25T06:10:42.753Z,14.73
2019-01-25T06:13:11.218Z,11.50
2019-01-25T06:15:39.678Z,17.97
2019-01-25T06:18:08.199Z,14.53
2019-01-25T06:20:36.658Z,16.27
2019-01-25T06:23:05.090Z,17.90
2019-01-25T06:25:33.826Z,13.60
2019-01-25T06:28:05.366Z,14.60
2019-01-25T06:30:33.885Z,18.40
2019-01-25T06:33:02.345Z,17.77
2019-01-25T06:35:30.866Z,14.57
2019-01-25T06:37:59.329Z,14.63
2019-01-25T06:40:27.847Z,17.20
2019-01-25T06:42:56.302Z,13.63
2019-01-25T06:45:24.767Z,13.37
2019-01-25T06:47:53.215Z,16.50
2019-01-25T06:50:21.677Z,11.33
2019-01-25T06:52:50.134Z,14.00
2019-01-25T06:55:18.589Z,14.20
2019-01-25T06:57:48.685Z,15.10
2019-01-25T07:00:19.732Z,15.87
2019-01-25T07:02:48.249Z,13.77
2019-01-25T07:05:16.718Z,18.83
2019-01-25T07:07:46.740Z,16.30
2019-01-25T07:10:18.441Z,16.03
2019-01-25T07:12:46.974Z,16.57
2019-01-25T07:15:17.305Z,21.50
2019-01-25T07:17:45.838Z,25.07
2019-01-25T07:20:17.741Z,23.07
2019-01-25T07:22:46.198Z,19.13
2019-01-25T07:25:16.194Z,23.03
2019-01-25T07:27:44.716Z,24.77
2019-01-25T07:30:17.008Z,23.03
2019-01-25T07:32:45.669Z,22.60
2019-01-25T07:35:14.538Z,25.27
2019-01-25T07:37:43.107Z,29.87
2019-01-25T07:40:12.154Z,24.17
2019-01-25T07:42:41.076Z,25.80
2019-01-25T07:45:14.038Z,24.43
2019-01-25T07:47:42.692Z,24.67
2019-01-25T07:50:12.227Z,23.50
2019-01-25T07:52:40.769Z,46.07
2019-01-25T07:55:12.978Z,49.90
2019-01-25T07:57:41.545Z,16.87
2019-01-25T08:00:17.013Z,28.90
2019-01-25T08:02:45.560Z,37.67
2019-01-25T08:05:14.179Z,21.83
2019-01-25T08:07:42.704Z,19.23
2019-01-25T08:10:19.864Z,24.67
2019-01-25T08:12:48.383Z,19.47
2019-01-25T08:15:27.137Z,17.77
2019-01-25T08:17:55.597Z,25.10
2019-01-25T08:20:24.143Z,85.27
2019-01-25T08:22:52.810Z,31.77
2019-01-25T08:25:21.254Z,21.93
2019-01-25T08:27:49.786Z,23.47
2019-01-25T08:30:23.309Z,22.10
2019-01-25T08:32:51.992Z,20.67
2019-01-25T08:35:20.659Z,24.47
2019-01-25T08:37:49.249Z,25.53
2019-01-25T08:40:18.273Z,21.20
2019-01-25T08:42:46.917Z,21.20
2019-01-25T08:45:19.304Z,12.80
2019-01-25T08:47:48.015Z,19.07
2019-01-25T08:50:19.201Z,22.27
2019-01-25T08:52:47.792Z,20.30
2019-01-25T08:55:16.503Z,8.50
2019-01-25T08:57:45.341Z,9.30
2019-01-25T09:00:19.445Z,7.63
2019-01-25T09:02:47.970Z,9.47
2019-01-25T09:05:17.577Z,8.37
2019-01-25T09:07:46.162Z,8.87
2019-01-25T09:10:19.908Z,10.20
2019-01-25T09:12:48.369Z,5.97
2019-01-25T09:15:19.645Z,8.77
2019-01-25T09:17:48.163Z,9.47
2019-01-25T09:20:18.657Z,8.20
2019-01-25T09:22:47.163Z,7.10
2019-01-25T09:25:15.860Z,7.90
2019-01-25T09:27:44.477Z,8.70
2019-01-25T09:30:15.669Z,7.30
2019-01-25T09:32:44.386Z,9.90
2019-01-25T09:35:12.958Z,9.00
2019-01-25T09:37:41.481Z,10.33
2019-01-25T09:40:13.129Z,7.67
2019-01-25T09:42:41.578Z,8.27
2019-01-25T09:45:11.957Z,8.60
2019-01-25T09:47:40.485Z,7.90
2019-01-25T09:50:14.729Z,10.50
2019-01-25T09:52:43.181Z,7.03
2019-01-25T09:55:14.377Z,8.17
2019-01-25T09:57:42.820Z,8.70
2019-01-25T10:00:20.229Z,10.97
2019-01-25T10:02:48.665Z,7.23
2019-01-25T10:05:17.110Z,7.60
2019-01-25T10:07:45.626Z,8.53
2019-01-25T10:10:14.233Z,8.73
2019-01-25T10:12:43.410Z,8.60
2019-01-25T10:15:15.409Z,9.43
2019-01-25T10:17:43.839Z,7.37
2019-01-25T10:20:12.692Z,9.80
2019-01-25T10:22:41.169Z,10.40
2019-01-25T10:25:12.509Z,9.80
2019-01-25T10:27:40.947Z,5.70
2019-01-25T10:30:15.438Z,11.00
2019-01-25T10:32:44.034Z,8.93
2019-01-25T10:35:12.808Z,9.30
2019-01-25T10:37:41.265Z,9.40
2019-01-25T10:40:15.182Z,8.73
2019-01-25T10:42:45.519Z,9.40
2019-01-25T10:45:16.946Z,9.53
2019-01-25T10:47:45.534Z,12.57
2019-01-25T10:50:14.117Z,13.30
2019-01-25T10:52:42.633Z,9.27
2019-01-25T10:55:12.309Z,8.10
2019-01-25T10:57:41.001Z,11.57
2019-01-25T11:00:12.866Z,12.17
2019-01-25T11:02:41.377Z,10.50
2019-01-25T11:05:13.065Z,7.83
2019-01-25T11:07:41.585Z,9.07
2019-01-25T11:10:10.431Z,11.60
2019-01-25T11:12:39.120Z,10.67
2019-01-25T11:15:10.874Z,9.90
2019-01-25T11:17:39.324Z,7.30
2019-01-25T11:20:11.173Z,7.30
2019-01-25T11:22:39.689Z,7.67
2019-01-25T11:25:11.207Z,6.60
2019-01-25T11:27:39.658Z,7.07
2019-01-25T11:30:11.526Z,9.70
2019-01-25T11:32:39.962Z,11.37
2019-01-25T11:35:08.556Z,8.63
2019-01-25T11:37:37.059Z,8.83
2019-01-25T11:40:14.591Z,10.23
2019-01-25T11:42:43.134Z,11.40
2019-01-25T11:45:12.517Z,9.20
2019-01-25T11:47:41.150Z,8.00
2019-01-25T11:50:15.253Z,10.37
2019-01-25T11:52:43.843Z,8.20
2019-01-25T11:55:14.522Z,9.57
2019-01-25T11:57:43.042Z,7.90
2019-01-25T12:00:14.593Z,8.50
2019-01-25T12:02:43.197Z,9.23
2019-01-25T12:05:14.693Z,9.83
2019-01-25T12:07:43.149Z,9.37
2019-01-25T12:10:17.501Z,8.60
2019-01-25T12:12:45.949Z,7.40
2019-01-25T12:15:16.429Z,7.83
2019-01-25T12:17:44.955Z,10.13
2019-01-25T12:20:30.493Z,6.80
2019-01-25T12:22:59.185Z,11.10
2019-01-25T12:25:27.767Z,7.97
2019-01-25T12:27:56.365Z,7.93
2019-01-25T12:30:38.198Z,9.43
2019-01-25T12:33:07.313Z,8.20
2019-01-25T12:35:37.893Z,11.37
2019-01-25T12:38:06.482Z,6.70
2019-01-25T12:40:35.050Z,8.87
2019-01-25T12:43:04.173Z,13.07
2019-01-25T12:45:32.763Z,9.50
2019-01-25T12:48:01.350Z,9.83
2019-01-25T12:50:41.803Z,8.83
2019-01-25T12:53:11.494Z,8.83
2019-01-25T12:55:40.089Z,8.77
2019-01-25T12:58:08.599Z,7.00
2019-01-25T13:00:37.282Z,7.33
2019-01-25T13:03:06.049Z,8.53
2019-01-25T13:05:34.503Z,8.03
2019-01-25T13:08:02.957Z,9.73
2019-01-25T13:10:31.421Z,11.17
2019-01-25T13:13:00.019Z,8.50
2019-01-25T13:15:28.476Z,8.77
2019-01-25T13:17:57.001Z,11.30
2019-01-25T13:20:27.581Z,9.93
2019-01-25T13:22:56.329Z,7.80
2019-01-25T13:25:24.893Z,11.80
2019-01-25T13:27:53.473Z,8.80
2019-01-25T13:30:29.401Z,9.10
2019-01-25T13:32:58.050Z,9.40
2019-01-25T13:35:26.561Z,8.93
2019-01-25T13:37:55.157Z,11.07
2019-01-25T13:40:25.633Z,9.87
2019-01-25T13:42:54.297Z,11.40
2019-01-25T13:45:23.493Z,7.80
2019-01-25T13:47:52.487Z,9.07
2019-01-25T13:50:25.965Z,10.63
2019-01-25T13:52:54.917Z,12.13
2019-01-25T13:55:23.489Z,9.53
2019-01-25T13:57:51.926Z,8.53
2019-01-25T14:00:32.169Z,9.00
2019-01-25T14:03:00.674Z,8.97
2019-01-25T14:05:29.190Z,9.60
2019-01-25T14:07:58.669Z,8.43
2019-01-25T14:10:35.077Z,11.17
2019-01-25T14:13:03.597Z,8.57
2019-01-25T14:15:32.496Z,10.97
2019-01-25T14:18:01.009Z,10.80
2019-01-25T14:20:33.785Z,9.10
2019-01-25T14:23:02.243Z,9.03
2019-01-25T14:25:31.035Z,12.33
2019-01-25T14:27:59.705Z,8.93
2019-01-25T14:30:31.156Z,11.83
2019-01-25T14:32:59.794Z,8.97
2019-01-25T14:35:28.365Z,8.33
2019-01-25T14:37:56.957Z,10.93
2019-01-25T14:40:25.478Z,8.63
2019-01-25T14:42:53.913Z,12.27
2019-01-25T14:45:22.434Z,9.83
2019-01-25T14:47:50.887Z,11.57
2019-01-25T14:50:21.783Z,11.63
2019-01-25T14:52:50.363Z,10.97
2019-01-25T14:55:18.885Z,9.73
2019-01-25T14:57:47.317Z,9.70
2019-01-25T15:00:16.434Z,8.03
2019-01-25T15:02:44.959Z,12.30
2019-01-25T15:05:16.141Z,14.00
2019-01-25T15:07:44.593Z,9.33
2019-01-25T15:10:15.581Z,10.00
2019-01-25T15:12:44.561Z,12.23
2019-01-25T15:15:14.661Z,12.13
2019-01-25T15:17:43.570Z,8.03
2019-01-25T15:20:23.501Z,10.40
2019-01-25T15:22:52.005Z,12.17
2019-01-25T15:25:20.613Z,13.63
2019-01-25T15:27:49.182Z,9.13
2019-01-25T15:30:23.597Z,12.37
2019-01-25T15:32:52.176Z,9.23
2019-01-25T15:35:22.173Z,8.70
2019-01-25T15:37:50.632Z,16.40
2019-01-25T15:40:20.409Z,8.50
2019-01-25T15:42:48.873Z,11.63
2019-01-25T15:45:19.673Z,14.97
2019-01-25T15:47:48.333Z,9.57
2019-01-25T15:50:22.648Z,10.00
2019-01-25T15:52:51.165Z,9.67
2019-01-25T15:55:20.554Z,9.03
2019-01-25T15:57:49.077Z,11.10
2019-01-25T16:00:20.610Z,10.23
2019-01-25T16:02:49.496Z,15.40
2019-01-25T16:05:19.801Z,11.60
2019-01-25T16:07:49.848Z,10.43
2019-01-25T16:10:20.589Z,11.13
2019-01-25T16:12:49.676Z,13.37
2019-01-25T16:15:28.088Z,12.80
2019-01-25T16:17:56.862Z,12.53
2019-01-25T16:20:25.525Z,14.83
2019-01-25T16:22:55.561Z,13.10
2019-01-25T16:25:31.668Z,15.00
2019-01-25T16:28:00.187Z,9.03
2019-01-25T16:30:30.665Z,11.33
2019-01-25T16:32:59.199Z,9.23
2019-01-25T16:35:27.785Z,12.53
2019-01-25T16:37:56.620Z,10.60
2019-01-25T16:40:29.981Z,10.93
2019-01-25T16:42:58.429Z,11.30
2019-01-25T16:45:32.823Z,10.60
2019-01-25T16:48:01.279Z,11.10
2019-01-25T16:50:29.898Z,10.80
2019-01-25T16:52:58.345Z,9.57
2019-01-25T16:55:26.875Z,14.07
2019-01-25T16:57:55.385Z,11.10
2019-01-25T17:00:26.482Z,8.03
2019-01-25T17:02:55.106Z,8.60
2019-01-25T17:05:24.385Z,9.67
2019-01-25T17:07:52.853Z,11.87
2019-01-25T17:10:21.756Z,10.10
2019-01-25T17:12:50.309Z,9.77
2019-01-25T17:15:18.904Z,8.57
2019-01-25T17:17:47.513Z,10.40
2019-01-25T17:20:21.838Z,11.33
2019-01-25T17:22:50.361Z,13.17
2019-01-25T17:25:18.865Z,12.33
2019-01-25T17:27:47.483Z,11.40
2019-01-25T17:30:24.493Z,9.30
2019-01-25T17:32:54.293Z,14.57
2019-01-25T17:35:22.809Z,14.57
2019-01-25T17:37:51.275Z,12.33
2019-01-25T17:40:25.378Z,11.57
2019-01-25T17:42:53.833Z,9.70
2019-01-25T17:45:22.285Z,8.80
2019-01-25T17:47:50.795Z,8.70
2019-01-25T17:50:19.329Z,9.70
2019-01-25T17:52:47.777Z,12.03
2019-01-25T17:55:17.775Z,8.60
2019-01-25T17:57:46.357Z,10.60
2019-01-25T18:00:21.969Z,10.40
2019-01-25T18:02:50.421Z,11.30
2019-01-25T18:05:18.957Z,10.23
2019-01-25T18:07:47.465Z,8.63
2019-01-25T18:10:17.669Z,7.43
2019-01-25T18:12:46.125Z,9.90
2019-01-25T18:15:16.613Z,9.60
2019-01-25T18:17:45.141Z,9.97
2019-01-25T18:20:21.988Z,7.90
2019-01-25T18:22:50.615Z,9.83
2019-01-25T18:25:22.189Z,8.70
2019-01-25T18:27:56.536Z,10.00
2019-01-25T18:30:34.152Z,16.07
2019-01-25T18:33:02.605Z,10.27
2019-01-25T18:35:31.161Z,9.10
2019-01-25T18:37:59.689Z,12.30
2019-01-25T18:40:28.220Z,10.27
2019-01-25T18:42:56.749Z,8.03
2019-01-25T18:45:25.280Z,8.70
2019-01-25T18:47:53.745Z,9.13
2019-01-25T18:50:22.349Z,11.33
2019-01-25T18:52:50.794Z,6.20
2019-01-25T18:55:22.289Z,9.23
2019-01-25T18:57:50.895Z,7.90
2019-01-25T19:00:21.186Z,11.80
2019-01-25T19:02:49.789Z,10.47
2019-01-25T19:05:18.642Z,8.77
2019-01-25T19:07:47.177Z,6.90
2019-01-25T19:10:27.260Z,9.57
2019-01-25T19:12:56.189Z,9.20
2019-01-25T19:15:27.476Z,9.10
2019-01-25T19:17:56.119Z,9.03
2019-01-25T19:20:24.669Z,10.27
2019-01-25T19:22:53.187Z,6.97
2019-01-25T19:25:21.716Z,7.80
2019-01-25T19:27:50.243Z,8.93
2019-01-25T19:30:30.908Z,8.07
2019-01-25T19:32:59.569Z,9.30
2019-01-25T19:35:28.110Z,7.17
2019-01-25T19:37:56.702Z,7.33
2019-01-25T19:40:35.826Z,7.83
2019-01-25T19:43:05.925Z,7.43
2019-01-25T19:45:34.647Z,7.90
2019-01-25T19:48:03.246Z,6.60
2019-01-25T19:50:31.926Z,10.50
2019-01-25T19:53:00.527Z,8.03
2019-01-25T19:55:32.780Z,6.13
2019-01-25T19:58:03.619Z,8.50
2019-01-25T20:00:37.597Z,10.97
2019-01-25T20:03:07.108Z,8.30
2019-01-25T20:05:35.730Z,7.80
2019-01-25T20:08:04.711Z,8.10
2019-01-25T20:10:33.310Z,11.47
2019-01-25T20:13:01.897Z,7.80
2019-01-25T20:15:30.472Z,9.83
2019-01-25T20:17:59.103Z,6.00
2019-01-25T20:20:36.114Z,9.60
2019-01-25T20:23:05.213Z,5.40
2019-01-25T20:25:33.920Z,8.47
2019-01-25T20:28:02.719Z,8.30
2019-01-25T20:30:32.871Z,8.90
2019-01-25T20:33:03.108Z,7.10
2019-01-25T20:35:33.849Z,9.03
2019-01-25T20:38:02.633Z,7.93
2019-01-25T20:40:31.300Z,5.83
2019-01-25T20:42:59.820Z,6.80
2019-01-25T20:45:31.093Z,9.53
2019-01-25T20:47:59.535Z,8.33
2019-01-25T20:50:30.026Z,8.03
2019-01-25T20:52:58.705Z,8.30
2019-01-25T20:55:27.307Z,5.13
2019-01-25T20:57:56.887Z,7.70
2019-01-25T21:00:31.326Z,7.90
2019-01-25T21:03:00.045Z,7.97
2019-01-25T21:05:28.721Z,8.63
2019-01-25T21:07:57.325Z,10.23
2019-01-25T21:10:26.374Z,7.60
2019-01-25T21:12:54.982Z,7.50
2019-01-25T21:15:25.774Z,11.00
2019-01-25T21:17:54.761Z,7.90
2019-01-25T21:20:34.766Z,7.37
2019-01-25T21:23:03.326Z,7.60
2019-01-25T21:25:32.238Z,5.43
2019-01-25T21:28:01.106Z,6.73
2019-01-25T21:30:31.713Z,5.90
2019-01-25T21:33:00.509Z,8.00
2019-01-25T21:35:29.474Z,7.70
2019-01-25T21:37:58.196Z,7.40
2019-01-25T21:40:29.104Z,7.50
2019-01-25T21:42:58.291Z,5.00
2019-01-25T21:45:29.655Z,8.70
2019-01-25T21:47:58.812Z,7.27
2019-01-25T21:50:30.569Z,8.57
2019-01-25T21:52:59.195Z,6.50
2019-01-25T21:55:27.775Z,4.20
2019-01-25T21:57:56.382Z,5.43
2019-01-25T22:00:33.043Z,5.40
2019-01-25T22:03:01.584Z,6.93
2019-01-25T22:05:30.162Z,4.80
2019-01-25T22:07:59.038Z,5.03
2019-01-25T22:10:30.565Z,7.67
2019-01-25T22:12:59.362Z,5.53
2019-01-25T22:15:28.157Z,4.60
2019-01-25T22:17:57.097Z,6.70
2019-01-25T22:20:27.992Z,7.60
2019-01-25T22:22:56.643Z,6.37
2019-01-25T22:25:25.175Z,3.93
2019-01-25T22:27:54.762Z,7.30
2019-01-25T22:30:28.233Z,5.27
2019-01-25T22:32:56.685Z,6.80
2019-01-25T22:35:25.219Z,4.17
2019-01-25T22:37:54.097Z,3.83
2019-01-25T22:40:25.285Z,5.40
2019-01-25T22:42:53.725Z,7.27
2019-01-25T22:45:27.438Z,3.93
2019-01-25T22:47:57.118Z,4.60
2019-01-25T22:50:28.187Z,4.87
2019-01-25T22:52:56.712Z,7.00
2019-01-25T22:55:25.694Z,4.97
2019-01-25T22:57:54.222Z,6.80
2019-01-25T23:00:45.034Z,4.97
2019-01-25T23:03:13.639Z,4.30
2019-01-25T23:06:02.798Z,7.63
2019-01-25T23:08:31.266Z,6.47
2019-01-25T23:10:59.709Z,3.50
2019-01-25T23:13:28.162Z,4.47
2019-01-25T23:15:56.622Z,4.77
2019-01-25T23:18:25.061Z,5.17
2019-01-25T23:20:53.525Z,4.80
2019-01-25T23:23:21.974Z,7.80
2019-01-25T23:25:50.425Z,7.10
2019-01-25T23:28:18.958Z,5.07
2019-01-25T23:30:47.486Z,4.17
2019-01-25T23:33:15.950Z,3.83
2019-01-25T23:35:44.462Z,4.80
2019-01-25T23:38:12.917Z,4.30
2019-01-25T23:40:41.370Z,4.40
2019-01-25T23:43:09.825Z,5.27
2019-01-25T23:45:38.356Z,4.80
2019-01-25T23:48:07.114Z,3.33
2019-01-25T23:50:35.575Z,3.53
2019-01-25T23:53:04.087Z,4.90
2019-01-25T23:55:32.627Z,5.23
2019-01-25T23:58:01.152Z,4.50
